sensor_id;sensor_type;location;lat;lon;timestamp;P1;durP1;ratioP1;P2;durP2;ratioP2
17796;SDS011;55596;53.554;9.916;2023-02-23T00:00:17;51.73;;;25.40;;
17796;SDS011;55596;53.554;9.916;2023-02-23T00:02:51;51.37;;;26.53;;
17796;SDS011;55596;53.554;9.916;2023-02-23T00:05:20;53.10;;;26.30;;
17796;SDS011;55596;53.554;9.916;2023-02-23T00:07:47;54.03;;;24.57;;
17796;SDS011;55596;53.554;9.916;2023-02-23T00:10:16;49.47;;;24.90;;
17796;SDS011;55596;53.554;9.916;2023-02-23T00:12:43;54.97;;;25.57;;
17796;SDS011;55596;53.554;9.916;2023-02-23T00:15:10;49.90;;;24.90;;
17796;SDS011;55596;53.554;9.916;2023-02-23T00:17:39;57.87;;;25.73;;
17796;SDS011;55596;53.554;9.916;2023-02-23T00:20:09;54.47;;;25.77;;
17796;SDS011;55596;53.554;9.916;2023-02-23T00:22:37;54.37;;;27.07;;
17796;SDS011;55596;53.554;9.916;2023-02-23T00:25:07;49.30;;;25.07;;
17796;SDS011;55596;53.554;9.916;2023-02-23T00:27:35;56.10;;;26.43;;
17796;SDS011;55596;53.554;9.916;2023-02-23T00:30:08;50.13;;;25.80;;
17796;SDS011;55596;53.554;9.916;2023-02-23T00:32:36;56.00;;;27.27;;
17796;SDS011;55596;53.554;9.916;2023-02-23T00:35:03;59.07;;;27.00;;
17796;SDS011;55596;53.554;9.916;2023-02-23T00:37:35;57.93;;;27.07;;
17796;SDS011;55596;53.554;9.916;2023-02-23T00:40:03;60.40;;;27.30;;
17796;SDS011;55596;53.554;9.916;2023-02-23T00:42:36;55.53;;;26.07;;
17796;SDS011;55596;53.554;9.916;2023-02-23T00:45:04;50.20;;;25.53;;
17796;SDS011;55596;53.554;9.916;2023-02-23T00:47:32;55.93;;;25.87;;
17796;SDS011;55596;53.554;9.916;2023-02-23T00:50:01;50.73;;;25.07;;
17796;SDS011;55596;53.554;9.916;2023-02-23T00:52:28;57.27;;;25.87;;
17796;SDS011;55596;53.554;9.916;2023-02-23T00:54:56;53.07;;;26.27;;
17796;SDS011;55596;53.554;9.916;2023-02-23T00:57:22;57.53;;;25.67;;
17796;SDS011;55596;53.554;9.916;2023-02-23T00:59:51;61.43;;;27.50;;
17796;SDS011;55596;53.554;9.916;2023-02-23T01:02:18;58.50;;;26.83;;
17796;SDS011;55596;53.554;9.916;2023-02-23T01:04:44;54.63;;;26.37;;
17796;SDS011;55596;53.554;9.916;2023-02-23T01:07:11;61.37;;;28.27;;
17796;SDS011;55596;53.554;9.916;2023-02-23T01:09:38;60.50;;;26.77;;
17796;SDS011;55596;53.554;9.916;2023-02-23T01:12:06;58.80;;;26.27;;
17796;SDS011;55596;53.554;9.916;2023-02-23T01:14:33;57.87;;;25.37;;
17796;SDS011;55596;53.554;9.916;2023-02-23T01:17:02;61.67;;;26.87;;
17796;SDS011;55596;53.554;9.916;2023-02-23T01:19:29;59.63;;;27.50;;
17796;SDS011;55596;53.554;9.916;2023-02-23T01:21:58;56.10;;;26.27;;
17796;SDS011;55596;53.554;9.916;2023-02-23T01:24:26;61.33;;;27.87;;
17796;SDS011;55596;53.554;9.916;2023-02-23T01:26:53;53.17;;;25.47;;
17796;SDS011;55596;53.554;9.916;2023-02-23T01:29:20;59.03;;;26.93;;
17796;SDS011;55596;53.554;9.916;2023-02-23T01:31:47;64.63;;;27.83;;
17796;SDS011;55596;53.554;9.916;2023-02-23T01:34:17;66.73;;;29.37;;
17796;SDS011;55596;53.554;9.916;2023-02-23T01:36:45;56.83;;;27.33;;
17796;SDS011;55596;53.554;9.916;2023-02-23T01:39:13;63.33;;;28.33;;
17796;SDS011;55596;53.554;9.916;2023-02-23T01:41:41;61.47;;;26.87;;
17796;SDS011;55596;53.554;9.916;2023-02-23T01:47:08;57.50;;;28.37;;
17796;SDS011;55596;53.554;9.916;2023-02-23T01:49:39;64.33;;;28.17;;
17796;SDS011;55596;53.554;9.916;2023-02-23T01:52:06;67.30;;;28.57;;
17796;SDS011;55596;53.554;9.916;2023-02-23T01:54:37;68.33;;;30.07;;
17796;SDS011;55596;53.554;9.916;2023-02-23T01:57:06;60.60;;;28.63;;
17796;SDS011;55596;53.554;9.916;2023-02-23T01:59:38;60.27;;;26.90;;
17796;SDS011;55596;53.554;9.916;2023-02-23T02:02:08;65.23;;;28.40;;
17796;SDS011;55596;53.554;9.916;2023-02-23T02:04:38;62.60;;;29.17;;
17796;SDS011;55596;53.554;9.916;2023-02-23T02:07:08;62.50;;;28.80;;
17796;SDS011;55596;53.554;9.916;2023-02-23T02:09:38;69.47;;;29.47;;
17796;SDS011;55596;53.554;9.916;2023-02-23T02:12:25;67.77;;;27.80;;
17796;SDS011;55596;53.554;9.916;2023-02-23T02:14:52;74.30;;;30.00;;
17796;SDS011;55596;53.554;9.916;2023-02-23T02:17:22;65.97;;;28.60;;
17796;SDS011;55596;53.554;9.916;2023-02-23T02:26:29;60.17;;;26.80;;
17796;SDS011;55596;53.554;9.916;2023-02-23T02:29:09;63.20;;;27.43;;
17796;SDS011;55596;53.554;9.916;2023-02-23T02:40:59;61.67;;;27.03;;
17796;SDS011;55596;53.554;9.916;2023-02-23T02:43:33;57.93;;;28.27;;
17796;SDS011;55596;53.554;9.916;2023-02-23T02:46:05;66.53;;;29.30;;
17796;SDS011;55596;53.554;9.916;2023-02-23T02:48:38;66.27;;;28.53;;
17796;SDS011;55596;53.554;9.916;2023-02-23T02:51:10;63.07;;;27.47;;
17796;SDS011;55596;53.554;9.916;2023-02-23T02:53:47;72.50;;;29.67;;
17796;SDS011;55596;53.554;9.916;2023-02-23T02:56:17;62.53;;;27.77;;
17796;SDS011;55596;53.554;9.916;2023-02-23T02:58:47;62.27;;;30.03;;
17796;SDS011;55596;53.554;9.916;2023-02-23T03:01:15;63.67;;;29.00;;
17796;SDS011;55596;53.554;9.916;2023-02-23T03:04:01;64.73;;;27.03;;
17796;SDS011;55596;53.554;9.916;2023-02-23T03:07:03;67.33;;;27.00;;
17796;SDS011;55596;53.554;9.916;2023-02-23T03:09:56;66.10;;;28.00;;
17796;SDS011;55596;53.554;9.916;2023-02-23T03:12:47;59.90;;;27.83;;
17796;SDS011;55596;53.554;9.916;2023-02-23T03:15:40;69.50;;;28.13;;
17796;SDS011;55596;53.554;9.916;2023-02-23T03:18:44;61.83;;;26.77;;
17796;SDS011;55596;53.554;9.916;2023-02-23T03:21:42;65.83;;;28.70;;
17796;SDS011;55596;53.554;9.916;2023-02-23T03:24:34;67.40;;;29.07;;
17796;SDS011;55596;53.554;9.916;2023-02-23T03:27:26;63.50;;;27.67;;
17796;SDS011;55596;53.554;9.916;2023-02-23T03:30:20;67.70;;;28.53;;
17796;SDS011;55596;53.554;9.916;2023-02-23T03:33:09;69.47;;;29.90;;
17796;SDS011;55596;53.554;9.916;2023-02-23T03:36:00;67.00;;;28.57;;
17796;SDS011;55596;53.554;9.916;2023-02-23T03:38:52;67.17;;;28.13;;
17796;SDS011;55596;53.554;9.916;2023-02-23T03:41:40;60.73;;;28.40;;
17796;SDS011;55596;53.554;9.916;2023-02-23T03:44:29;80.00;;;29.03;;
17796;SDS011;55596;53.554;9.916;2023-02-23T03:47:15;64.40;;;28.50;;
17796;SDS011;55596;53.554;9.916;2023-02-23T03:50:05;62.53;;;28.63;;
17796;SDS011;55596;53.554;9.916;2023-02-23T03:52:55;69.20;;;30.37;;
17796;SDS011;55596;53.554;9.916;2023-02-23T03:55:43;66.60;;;28.77;;
17796;SDS011;55596;53.554;9.916;2023-02-23T03:58:33;63.80;;;28.33;;
17796;SDS011;55596;53.554;9.916;2023-02-23T04:01:23;71.10;;;29.83;;
17796;SDS011;55596;53.554;9.916;2023-02-23T04:04:09;64.37;;;27.40;;
17796;SDS011;55596;53.554;9.916;2023-02-23T04:06:55;67.97;;;27.70;;
17796;SDS011;55596;53.554;9.916;2023-02-23T04:09:41;64.97;;;28.20;;
17796;SDS011;55596;53.554;9.916;2023-02-23T04:12:28;55.47;;;26.90;;
17796;SDS011;55596;53.554;9.916;2023-02-23T04:15:18;65.77;;;28.13;;
17796;SDS011;55596;53.554;9.916;2023-02-23T04:17:48;56.53;;;27.60;;
17796;SDS011;55596;53.554;9.916;2023-02-23T04:20:17;63.30;;;28.53;;
17796;SDS011;55596;53.554;9.916;2023-02-23T04:22:44;64.70;;;27.90;;
17796;SDS011;55596;53.554;9.916;2023-02-23T04:25:12;66.13;;;28.87;;
17796;SDS011;55596;53.554;9.916;2023-02-23T04:27:40;62.07;;;27.93;;
17796;SDS011;55596;53.554;9.916;2023-02-23T04:30:07;62.80;;;26.97;;
17796;SDS011;55596;53.554;9.916;2023-02-23T04:32:35;65.27;;;27.43;;
17796;SDS011;55596;53.554;9.916;2023-02-23T04:35:04;65.77;;;27.37;;
17796;SDS011;55596;53.554;9.916;2023-02-23T04:37:31;54.47;;;26.63;;
17796;SDS011;55596;53.554;9.916;2023-02-23T04:39:58;69.43;;;29.83;;
17796;SDS011;55596;53.554;9.916;2023-02-23T04:42:25;60.97;;;27.70;;
17796;SDS011;55596;53.554;9.916;2023-02-23T04:44:52;62.20;;;28.07;;
17796;SDS011;55596;53.554;9.916;2023-02-23T04:47:19;55.63;;;27.20;;
17796;SDS011;55596;53.554;9.916;2023-02-23T04:49:49;71.60;;;28.70;;
17796;SDS011;55596;53.554;9.916;2023-02-23T04:52:17;56.63;;;27.20;;
17796;SDS011;55596;53.554;9.916;2023-02-23T04:54:44;67.90;;;30.97;;
17796;SDS011;55596;53.554;9.916;2023-02-23T04:57:10;62.27;;;28.57;;
17796;SDS011;55596;53.554;9.916;2023-02-23T04:59:37;64.67;;;29.60;;
17796;SDS011;55596;53.554;9.916;2023-02-23T05:02:04;62.10;;;29.20;;
17796;SDS011;55596;53.554;9.916;2023-02-23T05:04:33;66.23;;;29.47;;
17796;SDS011;55596;53.554;9.916;2023-02-23T05:07:00;67.47;;;28.70;;
17796;SDS011;55596;53.554;9.916;2023-02-23T05:09:29;76.10;;;30.63;;
17796;SDS011;55596;53.554;9.916;2023-02-23T05:11:55;71.67;;;29.17;;
17796;SDS011;55596;53.554;9.916;2023-02-23T05:14:23;78.17;;;31.43;;
17796;SDS011;55596;53.554;9.916;2023-02-23T05:16:50;76.10;;;31.40;;
17796;SDS011;55596;53.554;9.916;2023-02-23T05:19:16;78.00;;;31.73;;
17796;SDS011;55596;53.554;9.916;2023-02-23T05:21:43;72.43;;;30.63;;
17796;SDS011;55596;53.554;9.916;2023-02-23T05:24:10;74.30;;;31.80;;
17796;SDS011;55596;53.554;9.916;2023-02-23T05:26:38;69.80;;;30.53;;
17796;SDS011;55596;53.554;9.916;2023-02-23T05:29:05;79.13;;;31.80;;
17796;SDS011;55596;53.554;9.916;2023-02-23T05:31:32;69.00;;;30.90;;
17796;SDS011;55596;53.554;9.916;2023-02-23T05:33:59;84.80;;;33.97;;
17796;SDS011;55596;53.554;9.916;2023-02-23T05:36:26;80.17;;;32.47;;
17796;SDS011;55596;53.554;9.916;2023-02-23T05:38:53;91.17;;;35.70;;
17796;SDS011;55596;53.554;9.916;2023-02-23T05:41:20;81.27;;;34.00;;
17796;SDS011;55596;53.554;9.916;2023-02-23T05:43:49;82.53;;;33.77;;
17796;SDS011;55596;53.554;9.916;2023-02-23T05:46:18;89.13;;;35.13;;
17796;SDS011;55596;53.554;9.916;2023-02-23T05:48:48;89.90;;;34.13;;
17796;SDS011;55596;53.554;9.916;2023-02-23T05:51:15;81.23;;;34.17;;
17796;SDS011;55596;53.554;9.916;2023-02-23T05:53:42;78.80;;;32.60;;
17796;SDS011;55596;53.554;9.916;2023-02-23T05:56:11;80.67;;;32.40;;
17796;SDS011;55596;53.554;9.916;2023-02-23T05:58:42;75.43;;;31.60;;
17796;SDS011;55596;53.554;9.916;2023-02-23T06:01:10;73.93;;;32.37;;
17796;SDS011;55596;53.554;9.916;2023-02-23T06:03:37;81.80;;;32.30;;
17796;SDS011;55596;53.554;9.916;2023-02-23T06:06:04;80.87;;;33.53;;
17796;SDS011;55596;53.554;9.916;2023-02-23T06:08:31;82.03;;;33.53;;
17796;SDS011;55596;53.554;9.916;2023-02-23T06:10:58;76.87;;;32.80;;
17796;SDS011;55596;53.554;9.916;2023-02-23T06:13:25;80.90;;;33.33;;
17796;SDS011;55596;53.554;9.916;2023-02-23T06:15:52;93.20;;;34.60;;
17796;SDS011;55596;53.554;9.916;2023-02-23T06:18:21;81.50;;;32.63;;
17796;SDS011;55596;53.554;9.916;2023-02-23T06:20:48;83.07;;;34.17;;
17796;SDS011;55596;53.554;9.916;2023-02-23T06:23:14;88.87;;;34.23;;
17796;SDS011;55596;53.554;9.916;2023-02-23T06:25:42;96.30;;;35.67;;
17796;SDS011;55596;53.554;9.916;2023-02-23T06:28:09;95.43;;;36.27;;
17796;SDS011;55596;53.554;9.916;2023-02-23T06:30:36;90.47;;;34.63;;
17796;SDS011;55596;53.554;9.916;2023-02-23T06:33:03;98.70;;;37.23;;
17796;SDS011;55596;53.554;9.916;2023-02-23T06:35:32;86.87;;;34.53;;
17796;SDS011;55596;53.554;9.916;2023-02-23T06:37:59;80.67;;;33.37;;
17796;SDS011;55596;53.554;9.916;2023-02-23T06:40:27;100.53;;;35.13;;
17796;SDS011;55596;53.554;9.916;2023-02-23T06:42:54;86.90;;;36.03;;
17796;SDS011;55596;53.554;9.916;2023-02-23T06:45:21;82.33;;;35.23;;
17796;SDS011;55596;53.554;9.916;2023-02-23T06:47:48;110.70;;;36.23;;
17796;SDS011;55596;53.554;9.916;2023-02-23T06:50:15;91.20;;;34.97;;
17796;SDS011;55596;53.554;9.916;2023-02-23T06:52:44;87.33;;;35.10;;
17796;SDS011;55596;53.554;9.916;2023-02-23T06:55:11;93.20;;;35.43;;
17796;SDS011;55596;53.554;9.916;2023-02-23T06:57:38;83.00;;;34.43;;
17796;SDS011;55596;53.554;9.916;2023-02-23T07:00:06;97.53;;;34.97;;
17796;SDS011;55596;53.554;9.916;2023-02-23T07:02:33;86.97;;;33.90;;
17796;SDS011;55596;53.554;9.916;2023-02-23T07:05:01;81.87;;;34.37;;
17796;SDS011;55596;53.554;9.916;2023-02-23T07:07:29;84.07;;;35.03;;
17796;SDS011;55596;53.554;9.916;2023-02-23T07:09:58;89.50;;;35.40;;
17796;SDS011;55596;53.554;9.916;2023-02-23T07:12:25;89.40;;;34.73;;
17796;SDS011;55596;53.554;9.916;2023-02-23T07:14:52;87.97;;;36.00;;
17796;SDS011;55596;53.554;9.916;2023-02-23T07:17:19;87.77;;;36.30;;
17796;SDS011;55596;53.554;9.916;2023-02-23T07:19:46;84.03;;;34.03;;
17796;SDS011;55596;53.554;9.916;2023-02-23T07:22:13;87.00;;;35.00;;
17796;SDS011;55596;53.554;9.916;2023-02-23T07:24:40;84.57;;;36.27;;
17796;SDS011;55596;53.554;9.916;2023-02-23T07:27:08;93.07;;;36.90;;
17796;SDS011;55596;53.554;9.916;2023-02-23T07:29:35;97.93;;;37.77;;
17796;SDS011;55596;53.554;9.916;2023-02-23T07:32:02;86.33;;;37.20;;
17796;SDS011;55596;53.554;9.916;2023-02-23T07:34:29;103.13;;;38.73;;
17796;SDS011;55596;53.554;9.916;2023-02-23T07:36:56;115.20;;;39.57;;
17796;SDS011;55596;53.554;9.916;2023-02-23T07:39:23;102.97;;;38.17;;
17796;SDS011;55596;53.554;9.916;2023-02-23T07:41:50;91.77;;;38.03;;
17796;SDS011;55596;53.554;9.916;2023-02-23T07:44:18;105.20;;;39.77;;
17796;SDS011;55596;53.554;9.916;2023-02-23T07:46:45;108.83;;;40.50;;
17796;SDS011;55596;53.554;9.916;2023-02-23T07:49:12;108.53;;;39.47;;
17796;SDS011;55596;53.554;9.916;2023-02-23T07:51:39;113.57;;;39.83;;
17796;SDS011;55596;53.554;9.916;2023-02-23T07:54:06;114.77;;;40.63;;
17796;SDS011;55596;53.554;9.916;2023-02-23T07:56:33;105.07;;;38.67;;
17796;SDS011;55596;53.554;9.916;2023-02-23T07:59:00;103.83;;;37.67;;
17796;SDS011;55596;53.554;9.916;2023-02-23T08:01:29;104.37;;;37.97;;
17796;SDS011;55596;53.554;9.916;2023-02-23T08:03:56;109.47;;;38.30;;
17796;SDS011;55596;53.554;9.916;2023-02-23T08:06:22;106.63;;;38.60;;
17796;SDS011;55596;53.554;9.916;2023-02-23T08:08:49;101.50;;;37.20;;
17796;SDS011;55596;53.554;9.916;2023-02-23T08:11:16;102.00;;;36.37;;
17796;SDS011;55596;53.554;9.916;2023-02-23T08:13:43;96.63;;;36.77;;
17796;SDS011;55596;53.554;9.916;2023-02-23T08:16:10;109.50;;;36.90;;
17796;SDS011;55596;53.554;9.916;2023-02-23T08:18:38;104.23;;;36.07;;
17796;SDS011;55596;53.554;9.916;2023-02-23T08:21:05;114.37;;;40.33;;
17796;SDS011;55596;53.554;9.916;2023-02-23T08:23:32;124.93;;;39.07;;
17796;SDS011;55596;53.554;9.916;2023-02-23T08:26:00;106.40;;;39.10;;
17796;SDS011;55596;53.554;9.916;2023-02-23T08:28:27;110.90;;;39.63;;
17796;SDS011;55596;53.554;9.916;2023-02-23T08:30:54;97.43;;;36.87;;
17796;SDS011;55596;53.554;9.916;2023-02-23T08:33:23;100.37;;;38.03;;
17796;SDS011;55596;53.554;9.916;2023-02-23T08:35:51;89.90;;;36.03;;
17796;SDS011;55596;53.554;9.916;2023-02-23T08:38:23;98.83;;;38.43;;
17796;SDS011;55596;53.554;9.916;2023-02-23T08:40:50;94.13;;;37.60;;
17796;SDS011;55596;53.554;9.916;2023-02-23T08:43:19;96.73;;;37.80;;
17796;SDS011;55596;53.554;9.916;2023-02-23T08:45:46;109.30;;;39.77;;
17796;SDS011;55596;53.554;9.916;2023-02-23T08:48:13;104.17;;;38.60;;
17796;SDS011;55596;53.554;9.916;2023-02-23T08:50:40;147.57;;;44.90;;
17796;SDS011;55596;53.554;9.916;2023-02-23T08:53:08;87.13;;;37.17;;
17796;SDS011;55596;53.554;9.916;2023-02-23T08:55:36;121.03;;;40.43;;
17796;SDS011;55596;53.554;9.916;2023-02-23T08:58:03;109.43;;;39.10;;
17796;SDS011;55596;53.554;9.916;2023-02-23T09:00:30;123.83;;;42.30;;
17796;SDS011;55596;53.554;9.916;2023-02-23T09:02:57;100.10;;;38.43;;
17796;SDS011;55596;53.554;9.916;2023-02-23T09:05:24;103.50;;;40.43;;
17796;SDS011;55596;53.554;9.916;2023-02-23T09:07:51;117.20;;;41.97;;
17796;SDS011;55596;53.554;9.916;2023-02-23T09:10:20;138.07;;;44.50;;
17796;SDS011;55596;53.554;9.916;2023-02-23T09:12:49;133.83;;;45.17;;
17796;SDS011;55596;53.554;9.916;2023-02-23T09:15:17;122.07;;;44.57;;
17796;SDS011;55596;53.554;9.916;2023-02-23T09:17:44;145.47;;;47.73;;
17796;SDS011;55596;53.554;9.916;2023-02-23T09:20:12;142.63;;;49.47;;
17796;SDS011;55596;53.554;9.916;2023-02-23T09:22:40;158.97;;;52.97;;
17796;SDS011;55596;53.554;9.916;2023-02-23T09:25:09;159.17;;;51.90;;
17796;SDS011;55596;53.554;9.916;2023-02-23T09:27:38;154.50;;;51.87;;
17796;SDS011;55596;53.554;9.916;2023-02-23T09:30:05;154.30;;;51.33;;
17796;SDS011;55596;53.554;9.916;2023-02-23T09:32:32;146.47;;;50.63;;
17796;SDS011;55596;53.554;9.916;2023-02-23T09:35:00;159.63;;;51.40;;
17796;SDS011;55596;53.554;9.916;2023-02-23T09:37:27;160.10;;;51.73;;
17796;SDS011;55596;53.554;9.916;2023-02-23T09:39:53;200.47;;;56.53;;
17796;SDS011;55596;53.554;9.916;2023-02-23T09:42:29;213.13;;;59.27;;
17796;SDS011;55596;53.554;9.916;2023-02-23T09:45:09;206.13;;;61.73;;
17796;SDS011;55596;53.554;9.916;2023-02-23T09:47:46;204.33;;;61.00;;
17796;SDS011;55596;53.554;9.916;2023-02-23T09:50:20;229.83;;;64.40;;
17796;SDS011;55596;53.554;9.916;2023-02-23T09:52:51;223.23;;;64.73;;
17796;SDS011;55596;53.554;9.916;2023-02-23T09:55:21;217.47;;;63.67;;
17796;SDS011;55596;53.554;9.916;2023-02-23T09:57:48;239.43;;;66.50;;
17796;SDS011;55596;53.554;9.916;2023-02-23T10:00:18;214.03;;;62.90;;
17796;SDS011;55596;53.554;9.916;2023-02-23T10:02:54;216.33;;;64.37;;
17796;SDS011;55596;53.554;9.916;2023-02-23T10:05:35;212.73;;;64.17;;
17796;SDS011;55596;53.554;9.916;2023-02-23T10:08:10;214.43;;;62.13;;
17796;SDS011;55596;53.554;9.916;2023-02-23T10:10:46;198.07;;;59.67;;
17796;SDS011;55596;53.554;9.916;2023-02-23T10:13:18;196.97;;;60.83;;
17796;SDS011;55596;53.554;9.916;2023-02-23T10:15:53;185.90;;;58.77;;
17796;SDS011;55596;53.554;9.916;2023-02-23T10:18:23;186.23;;;56.20;;
17796;SDS011;55596;53.554;9.916;2023-02-23T10:20:58;196.77;;;58.70;;
17796;SDS011;55596;53.554;9.916;2023-02-23T10:23:30;193.60;;;57.17;;
17796;SDS011;55596;53.554;9.916;2023-02-23T10:26:02;169.80;;;53.63;;
17796;SDS011;55596;53.554;9.916;2023-02-23T10:28:33;186.70;;;55.57;;
17796;SDS011;55596;53.554;9.916;2023-02-23T10:31:06;184.70;;;;;
17796;SDS011;55596;53.554;9.916;2023-02-23T10:33:49;162.53;;;51.63;;
17796;SDS011;55596;53.554;9.916;2023-02-23T10:36:23;168.23;;;53.67;;
17796;SDS011;55596;53.554;9.916;2023-02-23T10:38:56;176.90;;;55.00;;
17796;SDS011;55596;53.554;9.916;2023-02-23T10:41:23;174.20;;;54.70;;
17796;SDS011;55596;53.554;9.916;2023-02-23T10:43:50;184.47;;;55.97;;
17796;SDS011;55596;53.554;9.916;2023-02-23T10:46:20;167.53;;;53.17;;
17796;SDS011;55596;53.554;9.916;2023-02-23T10:48:49;171.23;;;52.23;;
17796;SDS011;55596;53.554;9.916;2023-02-23T10:51:18;177.77;;;53.77;;
17796;SDS011;55596;53.554;9.916;2023-02-23T10:53:50;173.07;;;53.27;;
17796;SDS011;55596;53.554;9.916;2023-02-23T10:56:18;176.83;;;52.30;;
17796;SDS011;55596;53.554;9.916;2023-02-23T10:58:46;162.50;;;45.23;;
17796;SDS011;55596;53.554;9.916;2023-02-23T11:01:15;174.43;;;52.47;;
17796;SDS011;55596;53.554;9.916;2023-02-23T11:03:58;157.73;;;47.87;;
17796;SDS011;55596;53.554;9.916;2023-02-23T11:06:39;162.40;;;49.43;;
17796;SDS011;55596;53.554;9.916;2023-02-23T11:09:24;144.87;;;47.63;;
17796;SDS011;55596;53.554;9.916;2023-02-23T11:11:56;150.53;;;46.27;;
17796;SDS011;55596;53.554;9.916;2023-02-23T11:14:25;141.03;;;44.77;;
17796;SDS011;55596;53.554;9.916;2023-02-23T11:16:53;145.90;;;45.83;;
17796;SDS011;55596;53.554;9.916;2023-02-23T11:19:31;124.63;;;39.90;;
17796;SDS011;55596;53.554;9.916;2023-02-23T11:22:01;125.80;;;42.00;;
17796;SDS011;55596;53.554;9.916;2023-02-23T11:24:31;111.13;;;39.80;;
17796;SDS011;55596;53.554;9.916;2023-02-23T11:27:01;107.47;;;40.33;;
17796;SDS011;55596;53.554;9.916;2023-02-23T11:29:31;95.87;;;38.97;;
17796;SDS011;55596;53.554;9.916;2023-02-23T11:32:02;101.27;;;39.30;;
17796;SDS011;55596;53.554;9.916;2023-02-23T11:34:35;99.00;;;39.93;;
17796;SDS011;55596;53.554;9.916;2023-02-23T11:37:05;95.97;;;39.20;;
17796;SDS011;55596;53.554;9.916;2023-02-23T11:39:33;99.93;;;38.70;;
17796;SDS011;55596;53.554;9.916;2023-02-23T11:42:03;92.60;;;38.03;;
17796;SDS011;55596;53.554;9.916;2023-02-23T11:44:42;85.70;;;37.33;;
17796;SDS011;55596;53.554;9.916;2023-02-23T11:47:13;83.53;;;36.43;;
17796;SDS011;55596;53.554;9.916;2023-02-23T11:49:44;86.23;;;35.80;;
17796;SDS011;55596;53.554;9.916;2023-02-23T11:52:13;85.70;;;36.80;;
17796;SDS011;55596;53.554;9.916;2023-02-23T11:54:47;81.57;;;35.50;;
17796;SDS011;55596;53.554;9.916;2023-02-23T11:57:20;92.67;;;36.90;;
17796;SDS011;55596;53.554;9.916;2023-02-23T11:59:49;95.63;;;36.47;;
17796;SDS011;55596;53.554;9.916;2023-02-23T12:02:19;83.10;;;34.67;;
17796;SDS011;55596;53.554;9.916;2023-02-23T12:04:50;87.27;;;36.00;;
17796;SDS011;55596;53.554;9.916;2023-02-23T12:07:28;83.83;;;36.13;;
17796;SDS011;55596;53.554;9.916;2023-02-23T12:10:03;84.37;;;36.07;;
17796;SDS011;55596;53.554;9.916;2023-02-23T12:12:39;82.40;;;35.23;;
17796;SDS011;55596;53.554;9.916;2023-02-23T12:15:15;73.60;;;32.80;;
17796;SDS011;55596;53.554;9.916;2023-02-23T12:17:50;72.90;;;32.40;;
17796;SDS011;55596;53.554;9.916;2023-02-23T12:20:22;70.07;;;31.50;;
17796;SDS011;55596;53.554;9.916;2023-02-23T12:22:52;80.33;;;34.40;;
17796;SDS011;55596;53.554;9.916;2023-02-23T12:25:24;80.07;;;34.77;;
17796;SDS011;55596;53.554;9.916;2023-02-23T12:27:56;100.57;;;36.70;;
17796;SDS011;55596;53.554;9.916;2023-02-23T12:30:33;80.63;;;34.27;;
17796;SDS011;55596;53.554;9.916;2023-02-23T12:33:08;71.07;;;32.67;;
17796;SDS011;55596;53.554;9.916;2023-02-23T12:35:42;76.80;;;34.97;;
17796;SDS011;55596;53.554;9.916;2023-02-23T12:38:17;81.13;;;33.77;;
17796;SDS011;55596;53.554;9.916;2023-02-23T12:40:52;71.03;;;32.33;;
17796;SDS011;55596;53.554;9.916;2023-02-23T12:43:25;79.80;;;34.23;;
17796;SDS011;55596;53.554;9.916;2023-02-23T12:45:58;76.33;;;34.70;;
17796;SDS011;55596;53.554;9.916;2023-02-23T12:48:34;78.17;;;34.03;;
17796;SDS011;55596;53.554;9.916;2023-02-23T12:51:13;68.33;;;31.87;;
17796;SDS011;55596;53.554;9.916;2023-02-23T12:53:46;71.07;;;33.07;;
17796;SDS011;55596;53.554;9.916;2023-02-23T12:56:18;68.33;;;32.47;;
17796;SDS011;55596;53.554;9.916;2023-02-23T12:58:58;70.07;;;31.50;;
17796;SDS011;55596;53.554;9.916;2023-02-23T13:01:39;75.07;;;32.40;;
17796;SDS011;55596;53.554;9.916;2023-02-23T13:04:28;72.63;;;33.60;;
17796;SDS011;55596;53.554;9.916;2023-02-23T13:07:19;66.77;;;31.87;;
17796;SDS011;55596;53.554;9.916;2023-02-23T13:09:52;69.70;;;32.97;;
17796;SDS011;55596;53.554;9.916;2023-02-23T13:12:31;75.60;;;32.40;;
17796;SDS011;55596;53.554;9.916;2023-02-23T13:15:15;71.60;;;31.07;;
17796;SDS011;55596;53.554;9.916;2023-02-23T13:17:49;74.87;;;32.33;;
17796;SDS011;55596;53.554;9.916;2023-02-23T13:20:25;72.77;;;31.97;;
17796;SDS011;55596;53.554;9.916;2023-02-23T13:23:01;66.97;;;31.23;;
17796;SDS011;55596;53.554;9.916;2023-02-23T13:25:36;74.30;;;32.40;;
17796;SDS011;55596;53.554;9.916;2023-02-23T13:28:13;70.37;;;32.00;;
17796;SDS011;55596;53.554;9.916;2023-02-23T13:30:43;133.97;;;39.40;;
17796;SDS011;55596;53.554;9.916;2023-02-23T13:33:14;73.00;;;32.67;;
17796;SDS011;55596;53.554;9.916;2023-02-23T13:35:49;66.67;;;30.13;;
17796;SDS011;55596;53.554;9.916;2023-02-23T13:38:21;64.37;;;29.57;;
17796;SDS011;55596;53.554;9.916;2023-02-23T13:40:56;75.60;;;32.37;;
17796;SDS011;55596;53.554;9.916;2023-02-23T13:43:31;64.47;;;29.13;;
17796;SDS011;55596;53.554;9.916;2023-02-23T13:46:06;63.00;;;27.70;;
17796;SDS011;55596;53.554;9.916;2023-02-23T13:48:44;60.63;;;27.27;;
17796;SDS011;55596;53.554;9.916;2023-02-23T13:51:20;63.87;;;27.73;;
17796;SDS011;55596;53.554;9.916;2023-02-23T13:53:59;54.10;;;24.20;;
17796;SDS011;55596;53.554;9.916;2023-02-23T13:56:30;51.27;;;23.80;;
17796;SDS011;55596;53.554;9.916;2023-02-23T13:59:03;50.27;;;23.77;;
17796;SDS011;55596;53.554;9.916;2023-02-23T14:01:34;50.57;;;21.23;;
17796;SDS011;55596;53.554;9.916;2023-02-23T14:04:04;50.73;;;23.43;;
17796;SDS011;55596;53.554;9.916;2023-02-23T14:06:36;45.63;;;21.07;;
17796;SDS011;55596;53.554;9.916;2023-02-23T14:09:08;45.07;;;21.53;;
17796;SDS011;55596;53.554;9.916;2023-02-23T14:11:41;60.97;;;21.40;;
17796;SDS011;55596;53.554;9.916;2023-02-23T14:14:12;49.93;;;20.23;;
17796;SDS011;55596;53.554;9.916;2023-02-23T14:17:07;43.97;;;18.47;;
17796;SDS011;55596;53.554;9.916;2023-02-23T14:20:04;41.37;;;16.67;;
17796;SDS011;55596;53.554;9.916;2023-02-23T14:25:47;43.80;;;17.97;;
17796;SDS011;55596;53.554;9.916;2023-02-23T14:28:23;42.27;;;17.70;;
17796;SDS011;55596;53.554;9.916;2023-02-23T14:30:58;82.30;;;19.87;;
17796;SDS011;55596;53.554;9.916;2023-02-23T14:33:33;40.73;;;16.83;;
17796;SDS011;55596;53.554;9.916;2023-02-23T14:36:02;36.10;;;16.83;;
17796;SDS011;55596;53.554;9.916;2023-02-23T14:39:14;35.07;;;15.07;;
17796;SDS011;55596;53.554;9.916;2023-02-23T14:41:46;36.73;;;15.47;;
17796;SDS011;55596;53.554;9.916;2023-02-23T14:44:16;58.63;;;18.17;;
17796;SDS011;55596;53.554;9.916;2023-02-23T14:46:47;35.10;;;15.83;;
17796;SDS011;55596;53.554;9.916;2023-02-23T14:49:19;35.27;;;14.70;;
17796;SDS011;55596;53.554;9.916;2023-02-23T14:51:47;39.73;;;15.90;;
17796;SDS011;55596;53.554;9.916;2023-02-23T14:54:24;53.30;;;16.67;;
17796;SDS011;55596;53.554;9.916;2023-02-23T14:56:57;33.00;;;14.27;;
17796;SDS011;55596;53.554;9.916;2023-02-23T14:59:25;33.20;;;15.70;;
17796;SDS011;55596;53.554;9.916;2023-02-23T15:01:54;38.47;;;15.17;;
17796;SDS011;55596;53.554;9.916;2023-02-23T15:04:25;39.70;;;16.03;;
17796;SDS011;55596;53.554;9.916;2023-02-23T15:06:54;34.93;;;14.90;;